Time;durP1;ratioP1;P1;durP2;ratioP2;P2;SDS_P1;SDS_P2;PMS_P1;PMS_P2;Temp;Humidity;BMP_temperature;BMP_pressure;BME280_temperature;BME280_humidity;BME280_pressure;Samples;Min_cycle;Max_cycle;Signal;HPM_P1;HPM_P2
2024/01/05 00:01:06;;;;;;;0.10;0.10;;;4.80;99.90;;;;;;4962359;28;20047;-70
2024/01/05 00:03:32;;;;;;;2.25;1.45;;;4.80;99.90;;;;;;4963452;28;20098;-70
2024/01/05 00:05:57;;;;;;;0.15;0.15;;;4.80;99.90;;;;;;4971582;28;20046;-70
2024/01/05 00:08:23;;;;;;;0.40;0.40;;;4.80;99.90;;;;;;4965427;28;20136;-70
2024/01/05 00:10:49;;;;;;;0.35;0.35;;;4.70;99.90;;;;;;4954622;28;20476;-70
2024/01/05 00:13:14;;;;;;;0.10;0.10;;;4.80;99.90;;;;;;4956159;28;20057;-70
2024/01/05 00:15:40;;;;;;;0.40;0.40;;;4.80;99.90;;;;;;4956704;28;20082;-71
2024/01/05 00:18:06;;;;;;;0.10;0.10;;;4.80;99.90;;;;;;4964156;28;20047;-71
2024/01/05 00:20:32;;;;;;;0.10;0.10;;;4.70;99.90;;;;;;4959707;28;20635;-71
2024/01/05 00:22:57;;;;;;;3.10;1.90;;;4.70;99.90;;;;;;4987875;28;20491;-71
2024/01/05 00:25:23;;;;;;;0.10;0.10;;;4.70;99.90;;;;;;4966237;28;20050;-71
2024/01/05 00:27:52;;;;;;;0.47;0.47;;;4.70;99.90;;;;;;4955733;28;20418;-70
2024/01/05 00:30:18;;;;;;;0.13;0.13;;;4.70;99.90;;;;;;4963004;28;20074;-70
2024/01/05 00:32:44;;;;;;;0.10;0.10;;;4.70;99.90;;;;;;4963798;28;20101;-71
2024/01/05 00:35:10;;;;;;;0.13;0.13;;;4.70;99.90;;;;;;4997214;28;20424;-71
2024/01/05 00:37:36;;;;;;;0.10;0.10;;;4.60;99.90;;;;;;4990855;28;20098;-71
2024/01/05 00:40:03;;;;;;;6.00;0.93;;;4.70;99.90;;;;;;4955841;28;20043;-71
2024/01/05 00:42:28;;;;;;;11.55;3.60;;;4.60;99.90;;;;;;4999410;28;20051;-71
2024/01/05 00:44:54;;;;;;;0.10;0.10;;;4.60;99.90;;;;;;4966853;28;20064;-71
2024/01/05 00:47:20;;;;;;;0.10;0.10;;;4.60;99.90;;;;;;4955656;28;20161;-71
2024/01/05 00:49:45;;;;;;;0.28;0.28;;;4.60;99.90;;;;;;4969192;28;20134;-71
2024/01/05 00:52:12;;;;;;;1.65;1.55;;;4.60;99.90;;;;;;4969562;28;20035;-71
2024/01/05 00:54:38;;;;;;;0.10;0.10;;;4.60;99.90;;;;;;4962660;28;20053;-71
2024/01/05 00:57:04;;;;;;;0.10;0.10;;;4.60;99.90;;;;;;4968860;28;20039;-71
2024/01/05 00:59:30;;;;;;;0.55;0.55;;;4.60;99.90;;;;;;4968410;28;20104;-71
2024/01/05 01:01:55;;;;;;;0.20;0.20;;;4.60;99.90;;;;;;4967442;28;20066;-71
2024/01/05 01:04:21;;;;;;;1.75;1.27;;;4.50;99.90;;;;;;4964005;28;20035;-71
2024/01/05 01:06:46;;;;;;;1.65;1.55;;;4.50;99.90;;;;;;4964379;28;20122;-71
2024/01/05 01:09:12;;;;;;;0.20;0.20;;;4.50;99.90;;;;;;4966582;28;20486;-71
2024/01/05 01:11:38;;;;;;;0.10;0.10;;;4.50;99.90;;;;;;4971243;28;20458;-71
2024/01/05 01:14:03;;;;;;;0.30;0.30;;;4.50;99.90;;;;;;4970971;28;20133;-70
2024/01/05 01:16:29;;;;;;;0.38;0.38;;;4.50;99.90;;;;;;4967014;28;20487;-71
2024/01/05 01:18:55;;;;;;;0.10;0.10;;;4.50;99.90;;;;;;4962536;28;20061;-70
2024/01/05 01:21:20;;;;;;;0.85;0.85;;;4.50;99.90;;;;;;4966718;28;20491;-70
2024/01/05 01:23:46;;;;;;;0.55;0.55;;;4.40;99.90;;;;;;4963065;28;20405;-70
2024/01/05 01:26:12;;;;;;;0.40;0.40;;;4.50;99.90;;;;;;4968591;28;20130;-71
2024/01/05 01:28:37;;;;;;;0.30;0.30;;;4.50;99.90;;;;;;4964198;28;20050;-71
2024/01/05 01:31:03;;;;;;;0.10;0.10;;;4.50;99.90;;;;;;4969142;28;20097;-71
2024/01/05 01:33:28;;;;;;;0.80;0.45;;;4.50;99.90;;;;;;4971318;28;20118;-71
2024/01/05 01:35:54;;;;;;;0.10;0.10;;;4.50;99.90;;;;;;4968492;28;20031;-71
2024/01/05 01:38:20;;;;;;;0.65;0.65;;;4.50;99.90;;;;;;4966471;28;20043;-71
2024/01/05 01:40:46;;;;;;;1.00;1.00;;;4.50;99.90;;;;;;4970985;28;20510;-71
2024/01/05 01:43:21;;;;;;;1.27;1.20;;;4.50;99.90;;;;;;4965976;28;20063;-71
2024/01/05 01:45:47;;;;;;;0.10;0.10;;;4.50;99.90;;;;;;4968348;28;20059;-71
2024/01/05 01:48:15;;;;;;;0.43;0.43;;;4.50;99.90;;;;;;4971423;28;20122;-71
2024/01/05 01:50:40;;;;;;;0.25;0.25;;;4.50;99.90;;;;;;4972057;28;20054;-71
2024/01/05 01:53:06;;;;;;;0.65;0.65;;;4.40;99.90;;;;;;4964129;28;20043;-71
2024/01/05 01:55:32;;;;;;;0.43;0.43;;;4.40;99.90;;;;;;4988615;28;20051;-71
2024/01/05 01:57:57;;;;;;;0.10;0.10;;;4.50;99.90;;;;;;4971032;28;20054;-71
2024/01/05 02:00:23;;;;;;;0.65;0.65;;;4.40;99.90;;;;;;4964716;28;20067;-71
2024/01/05 02:02:50;;;;;;;0.17;0.17;;;4.40;99.90;;;;;;4960558;28;20047;-72
2024/01/05 02:05:17;;;;;;;0.10;0.10;;;4.50;99.90;;;;;;4961800;28;20046;-72
2024/01/05 02:07:42;;;;;;;0.98;0.88;;;4.40;99.90;;;;;;4958133;28;20051;-71
2024/01/05 02:10:08;;;;;;;0.55;0.55;;;4.40;99.90;;;;;;4970582;28;20077;-71
2024/01/05 02:12:34;;;;;;;0.10;0.10;;;4.40;99.90;;;;;;4968974;28;20498;-71
2024/01/05 02:14:59;;;;;;;0.10;0.10;;;4.40;99.90;;;;;;4957706;28;20078;-70
2024/01/05 02:17:32;;;;;;;0.47;0.47;;;4.40;99.90;;;;;;4970897;28;20137;-71
2024/01/05 02:19:58;;;;;;;0.28;0.28;;;4.40;99.90;;;;;;4965119;28;20093;-71
2024/01/05 02:22:28;;;;;;;16.23;3.65;;;4.30;99.90;;;;;;4966108;28;20066;-71
2024/01/05 02:24:54;;;;;;;0.43;0.43;;;4.30;99.90;;;;;;4965234;28;20257;-70
2024/01/05 02:27:19;;;;;;;0.40;0.40;;;4.40;99.90;;;;;;4997168;28;20547;-71
2024/01/05 02:29:45;;;;;;;0.57;0.57;;;4.40;99.90;;;;;;4971745;28;20372;-70
2024/01/05 02:32:10;;;;;;;0.10;0.10;;;4.40;99.90;;;;;;4963906;28;20066;-70
2024/01/05 02:34:36;;;;;;;2.80;2.03;;;4.30;99.90;;;;;;4965791;28;20054;-71
2024/01/05 02:37:02;;;;;;;0.68;0.68;;;4.30;99.90;;;;;;4963315;28;20507;-71
2024/01/05 02:39:27;;;;;;;0.40;0.40;;;4.30;99.90;;;;;;4960153;28;20035;-71
2024/01/05 02:41:53;;;;;;;0.25;0.25;;;4.40;99.90;;;;;;4962272;28;20058;-71
2024/01/05 02:44:18;;;;;;;0.10;0.10;;;4.40;99.90;;;;;;4992657;28;20047;-71
2024/01/05 02:46:44;;;;;;;1.17;0.95;;;4.40;99.90;;;;;;4960925;28;20057;-71
2024/01/05 02:49:09;;;;;;;0.50;0.50;;;4.30;99.90;;;;;;4967215;28;20399;-71
2024/01/05 02:51:35;;;;;;;1.15;1.15;;;4.40;99.90;;;;;;4975720;28;20037;-71
2024/01/05 02:54:01;;;;;;;0.50;0.50;;;4.40;99.90;;;;;;4997391;28;20062;-71
2024/01/05 02:56:26;;;;;;;0.10;0.10;;;4.30;99.90;;;;;;4959393;28;20055;-71
2024/01/05 02:58:52;;;;;;;0.22;0.22;;;4.40;99.90;;;;;;4965007;28;20039;-71
2024/01/05 03:01:19;;;;;;;0.20;0.20;;;4.30;99.90;;;;;;4998386;28;20042;-71
2024/01/05 03:03:46;;;;;;;0.10;0.10;;;4.30;99.90;;;;;;4964935;28;20035;-71
2024/01/05 03:06:15;;;;;;;0.20;0.20;;;4.30;99.90;;;;;;4961607;28;20488;-71
2024/01/05 03:08:42;;;;;;;0.55;0.55;;;4.30;99.90;;;;;;4963280;28;20089;-71
2024/01/05 03:11:07;;;;;;;0.10;0.10;;;4.40;99.90;;;;;;4993903;28;20086;-71
2024/01/05 03:13:33;;;;;;;0.93;0.93;;;4.40;99.90;;;;;;4991759;28;20082;-71
2024/01/05 03:15:58;;;;;;;0.10;0.10;;;4.30;99.90;;;;;;4958592;28;20047;-71
2024/01/05 03:18:24;;;;;;;0.20;0.20;;;4.30;99.90;;;;;;4958421;28;20047;-71
2024/01/05 03:20:49;;;;;;;1.00;1.00;;;4.30;99.90;;;;;;4956997;28;20149;-71
2024/01/05 03:23:15;;;;;;;0.52;0.52;;;4.30;99.90;;;;;;4957773;28;20043;-71
2024/01/05 03:25:45;;;;;;;1.42;1.33;;;4.30;99.90;;;;;;4964384;28;20053;-71
2024/01/05 03:28:10;;;;;;;0.15;0.15;;;4.30;99.90;;;;;;4969527;28;20495;-71
2024/01/05 03:30:37;;;;;;;0.10;0.10;;;4.30;99.90;;;;;;4955490;28;20105;-71
2024/01/05 03:33:03;;;;;;;0.17;0.17;;;4.30;99.90;;;;;;4997317;28;20097;-71
2024/01/05 03:35:29;;;;;;;1.00;1.00;;;4.30;99.90;;;;;;4964607;28;20082;-71
2024/01/05 03:37:55;;;;;;;0.57;0.57;;;4.30;99.90;;;;;;4961752;28;20071;-71
2024/01/05 03:40:21;;;;;;;0.95;0.95;;;4.30;99.90;;;;;;4968240;28;20051;-71
2024/01/05 03:42:47;;;;;;;0.10;0.10;;;4.30;99.90;;;;;;4968242;28;20684;-71
2024/01/05 03:45:12;;;;;;;0.95;0.95;;;4.20;99.90;;;;;;4959699;28;20066;-71
2024/01/05 03:47:38;;;;;;;0.57;0.57;;;4.30;99.90;;;;;;4964830;28;20086;-71
2024/01/05 03:50:04;;;;;;;0.30;0.30;;;4.30;99.90;;;;;;4964805;28;20062;-71
2024/01/05 03:52:30;;;;;;;0.52;0.52;;;4.30;99.90;;;;;;4968535;28;20102;-71
2024/01/05 03:54:56;;;;;;;0.25;0.25;;;4.30;99.90;;;;;;4969378;28;20080;-71
2024/01/05 03:57:21;;;;;;;0.32;0.32;;;4.30;99.90;;;;;;4963082;28;20406;-71
2024/01/05 03:59:48;;;;;;;0.10;0.10;;;4.30;99.90;;;;;;4965038;28;20061;-71
2024/01/05 04:02:13;;;;;;;0.10;0.10;;;4.30;99.90;;;;;;4964475;28;20074;-71
2024/01/05 04:04:39;;;;;;;0.10;0.10;;;4.30;99.90;;;;;;4956429;28;20471;-71
2024/01/05 04:07:05;;;;;;;1.40;1.30;;;4.30;99.90;;;;;;4995648;28;20050;-71
2024/01/05 04:09:31;;;;;;;1.95;0.45;;;4.30;99.90;;;;;;4966365;28;20053;-71
2024/01/05 04:11:57;;;;;;;0.38;0.38;;;4.20;99.90;;;;;;4956673;28;20059;-71
2024/01/05 04:14:23;;;;;;;0.10;0.10;;;4.20;99.90;;;;;;4964588;28;20038;-71
2024/01/05 04:16:48;;;;;;;0.20;0.20;;;4.30;99.90;;;;;;4955225;28;20054;-71
2024/01/05 04:19:14;;;;;;;2.72;0.90;;;4.30;99.90;;;;;;4961676;28;20034;-71
2024/01/05 04:21:40;;;;;;;0.20;0.20;;;4.30;99.90;;;;;;4963814;28;20506;-71
2024/01/05 04:24:05;;;;;;;0.25;0.25;;;4.20;99.90;;;;;;4959617;28;20142;-71
2024/01/05 04:26:31;;;;;;;0.10;0.10;;;4.30;99.90;;;;;;4963396;28;20451;-71
2024/01/05 04:28:57;;;;;;;0.10;0.10;;;4.20;99.90;;;;;;4957886;28;20054;-71
2024/01/05 04:31:23;;;;;;;0.45;0.45;;;4.20;99.90;;;;;;4964947;28;20043;-70
2024/01/05 04:33:48;;;;;;;0.10;0.10;;;4.20;99.90;;;;;;4965737;28;20034;-71
2024/01/05 04:36:20;;;;;;;0.20;0.20;;;4.30;99.90;;;;;;4995920;28;20586;-70
2024/01/05 04:38:46;;;;;;;0.10;0.10;;;4.30;99.90;;;;;;4997199;28;20051;-70
2024/01/05 04:41:16;;;;;;;0.17;0.17;;;4.20;99.90;;;;;;4965830;28;20051;-71
2024/01/05 04:43:43;;;;;;;0.20;0.20;;;4.20;99.90;;;;;;4965127;28;20090;-70
2024/01/05 04:46:09;;;;;;;0.10;0.10;;;4.20;99.90;;;;;;4958672;28;20082;-70
2024/01/05 04:48:35;;;;;;;1.65;1.00;;;4.20;99.90;;;;;;4958343;28;20105;-71
2024/01/05 04:51:01;;;;;;;0.70;0.70;;;4.30;99.90;;;;;;4988317;28;20046;-70
2024/01/05 04:53:27;;;;;;;0.10;0.10;;;4.20;99.90;;;;;;4962461;28;20062;-71
2024/01/05 04:55:52;;;;;;;1.08;1.05;;;4.20;99.90;;;;;;4969482;28;20279;-71
2024/01/05 04:58:18;;;;;;;1.95;0.93;;;4.20;99.90;;;;;;4972914;28;20042;-70
2024/01/05 05:00:44;;;;;;;0.20;0.20;;;4.20;99.90;;;;;;4965851;28;20051;-70
2024/01/05 05:03:10;;;;;;;0.50;0.50;;;4.20;99.90;;;;;;4994250;28;20034;-70
2024/01/05 05:05:39;;;;;;;0.28;0.28;;;4.20;99.90;;;;;;4965989;28;20762;-70
2024/01/05 05:08:05;;;;;;;0.10;0.10;;;4.20;99.90;;;;;;4991252;28;20414;-70
2024/01/05 05:10:31;;;;;;;1.85;1.75;;;4.30;99.90;;;;;;4992800;28;20487;-70
2024/01/05 05:12:56;;;;;;;0.57;0.57;;;4.30;99.90;;;;;;4964892;28;20093;-70
2024/01/05 05:15:22;;;;;;;0.57;0.40;;;4.30;99.90;;;;;;4965956;28;20066;-70
2024/01/05 05:17:47;;;;;;;0.10;0.10;;;4.30;99.90;;;;;;4955741;28;20070;-70
2024/01/05 05:20:13;;;;;;;0.13;0.13;;;4.30;99.90;;;;;;4961663;28;20097;-70
2024/01/05 05:22:38;;;;;;;0.57;0.57;;;4.20;99.90;;;;;;4967973;28;20065;-70
2024/01/05 05:25:05;;;;;;;0.20;0.20;;;4.30;99.90;;;;;;4967009;28;22437;-70
2024/01/05 05:27:31;;;;;;;0.10;0.10;;;4.30;99.90;;;;;;4961437;28;20105;-70
2024/01/05 05:29:57;;;;;;;0.28;0.28;;;4.30;99.90;;;;;;4998115;28;20513;-70
2024/01/05 05:32:23;;;;;;;2.13;1.17;;;4.30;99.90;;;;;;4966384;28;20194;-71
2024/01/05 05:34:49;;;;;;;0.10;0.10;;;4.30;99.90;;;;;;4968135;28;20133;-70
2024/01/05 05:37:15;;;;;;;0.20;0.20;;;4.30;99.90;;;;;;4962640;28;20039;-70
2024/01/05 05:39:40;;;;;;;0.10;0.10;;;4.30;99.90;;;;;;4975726;28;20054;-70
2024/01/05 05:42:06;;;;;;;0.13;0.13;;;4.30;99.90;;;;;;4964800;28;20108;-70
2024/01/05 05:44:31;;;;;;;0.63;0.63;;;4.30;99.90;;;;;;4961302;28;20051;-70
2024/01/05 05:46:57;;;;;;;0.10;0.10;;;4.30;99.90;;;;;;4964602;28;20150;-70
2024/01/05 05:49:23;;;;;;;0.50;0.50;;;4.30;99.90;;;;;;4968755;28;20050;-70
2024/01/05 05:51:48;;;;;;;0.30;0.30;;;4.30;99.90;;;;;;4971494;28;20143;-70
2024/01/05 05:54:14;;;;;;;0.10;0.10;;;4.30;99.90;;;;;;4969454;28;20078;-70
2024/01/05 05:56:40;;;;;;;1.60;1.50;;;4.30;99.90;;;;;;4964113;28;20057;-70
2024/01/05 05:59:06;;;;;;;1.55;1.08;;;4.30;99.90;;;;;;4991267;28;20472;-70
2024/01/05 06:01:31;;;;;;;0.15;0.15;;;4.30;99.90;;;;;;4964572;28;20111;-70
2024/01/05 06:03:57;;;;;;;0.08;0.08;;;4.40;99.90;;;;;;4994202;28;20054;-70
2024/01/05 06:06:23;;;;;;;0.22;0.22;;;4.40;99.90;;;;;;4999054;28;20055;-70
2024/01/05 06:08:51;;;;;;;0.10;0.10;;;4.40;99.90;;;;;;4959786;28;20043;-70
2024/01/05 06:11:18;;;;;;;0.35;0.35;;;4.40;99.90;;;;;;4968573;28;20082;-70
2024/01/05 06:13:44;;;;;;;0.20;0.20;;;4.40;99.90;;;;;;4969594;28;20568;-70
2024/01/05 06:16:10;;;;;;;0.28;0.28;;;4.30;99.90;;;;;;4988881;28;20101;-70
2024/01/05 06:18:37;;;;;;;0.13;0.13;;;4.40;99.90;;;;;;4964191;28;20141;-70
2024/01/05 06:21:03;;;;;;;0.52;0.52;;;4.40;99.90;;;;;;4968249;28;20081;-70
2024/01/05 06:23:29;;;;;;;0.30;0.30;;;4.40;99.90;;;;;;4960725;28;20466;-70
2024/01/05 06:25:56;;;;;;;0.17;0.17;;;4.40;99.90;;;;;;4993312;28;20082;-70
2024/01/05 06:28:21;;;;;;;0.10;0.10;;;4.40;99.90;;;;;;4964664;28;20055;-70
2024/01/05 06:30:47;;;;;;;0.32;0.32;;;4.40;99.90;;;;;;4961285;28;20103;-70
2024/01/05 06:33:12;;;;;;;1.20;1.10;;;4.40;99.90;;;;;;4969699;28;20061;-70
2024/01/05 06:35:38;;;;;;;5.55;1.95;;;4.40;99.90;;;;;;4963195;28;20042;-71
2024/01/05 06:38:04;;;;;;;1.13;0.98;;;4.40;99.90;;;;;;5001903;28;20046;-71
2024/01/05 06:40:29;;;;;;;0.20;0.20;;;4.40;99.90;;;;;;4966014;28;20071;-70
2024/01/05 06:42:57;;;;;;;0.10;0.10;;;4.40;99.90;;;;;;4969303;28;20060;-71
2024/01/05 06:45:23;;;;;;;0.75;0.75;;;4.40;99.90;;;;;;4992991;28;20054;-71
2024/01/05 06:47:49;;;;;;;0.20;0.20;;;4.40;99.90;;;;;;4962577;28;20069;-71
2024/01/05 06:50:14;;;;;;;0.40;0.40;;;4.40;99.90;;;;;;4994874;28;20482;-70
2024/01/05 06:52:40;;;;;;;0.63;0.63;;;4.50;99.90;;;;;;4965422;28;20051;-70
2024/01/05 06:55:06;;;;;;;4.85;2.30;;;4.50;99.90;;;;;;4969882;28;20038;-70
2024/01/05 06:57:31;;;;;;;0.10;0.10;;;4.50;99.90;;;;;;4968768;28;20054;-71
2024/01/05 06:59:57;;;;;;;0.82;0.82;;;4.50;99.90;;;;;;4968445;28;20049;-70
2024/01/05 07:02:23;;;;;;;0.10;0.10;;;4.50;99.90;;;;;;4960347;28;20051;-70
2024/01/05 07:04:48;;;;;;;0.10;0.10;;;4.50;99.90;;;;;;4992938;28;20039;-71
2024/01/05 07:07:14;;;;;;;0.10;0.10;;;4.50;99.90;;;;;;4995441;28;20054;-70
2024/01/05 07:09:40;;;;;;;0.63;0.63;;;4.50;99.90;;;;;;4962926;28;20478;-70
2024/01/05 07:12:06;;;;;;;0.20;0.20;;;4.50;99.90;;;;;;4987579;28;20049;-70
2024/01/05 07:14:31;;;;;;;0.17;0.17;;;4.50;99.90;;;;;;4966866;28;20043;-70
2024/01/05 07:16:58;;;;;;;1.25;1.17;;;4.50;99.90;;;;;;4969102;28;20047;-70
2024/01/05 07:19:24;;;;;;;0.15;0.15;;;4.50;99.90;;;;;;4959463;28;20627;-70
2024/01/05 07:21:50;;;;;;;0.45;0.45;;;4.50;99.90;;;;;;4962324;28;20126;-71
2024/01/05 07:24:17;;;;;;;0.55;0.55;;;4.50;99.90;;;;;;4966597;28;20117;-70
2024/01/05 07:26:43;;;;;;;0.17;0.17;;;4.50;99.90;;;;;;4961534;28;20055;-70
2024/01/05 07:29:08;;;;;;;0.30;0.30;;;4.50;99.90;;;;;;4957743;28;20059;-70
2024/01/05 07:31:34;;;;;;;1.60;1.50;;;4.50;99.90;;;;;;4960946;28;20047;-70
2024/01/05 07:34:00;;;;;;;0.10;0.10;;;4.50;99.90;;;;;;4965769;28;20047;-70
2024/01/05 07:36:26;;;;;;;0.10;0.10;;;4.60;99.90;;;;;;4969958;28;20078;-70
2024/01/05 07:38:52;;;;;;;0.77;0.77;;;4.60;99.90;;;;;;4994497;28;20101;-70
2024/01/05 07:41:18;;;;;;;0.10;0.10;;;4.60;99.90;;;;;;4998821;28;20042;-70
2024/01/05 07:43:44;;;;;;;0.40;0.40;;;4.60;99.90;;;;;;4957889;28;20388;-70
2024/01/05 07:46:09;;;;;;;0.15;0.15;;;4.60;99.90;;;;;;4969997;28;20054;-70
2024/01/05 07:48:39;;;;;;;0.40;0.40;;;4.60;99.90;;;;;;4965465;28;20044;-69
2024/01/05 07:51:04;;;;;;;0.50;0.50;;;4.60;99.90;;;;;;4967503;28;20552;-69
2024/01/05 07:53:30;;;;;;;0.10;0.10;;;4.70;99.90;;;;;;4962691;28;20039;-69
2024/01/05 07:55:59;;;;;;;0.10;0.10;;;4.70;99.90;;;;;;4993467;28;20120;-69
2024/01/05 07:58:25;;;;;;;0.50;0.50;;;4.70;99.90;;;;;;4960719;28;20495;-69
2024/01/05 08:00:50;;;;;;;0.10;0.10;;;4.70;99.90;;;;;;4962301;28;20089;-69
2024/01/05 08:03:16;;;;;;;0.20;0.20;;;4.70;99.90;;;;;;4961617;28;20047;-69
2024/01/05 08:05:41;;;;;;;0.10;0.10;;;4.70;99.90;;;;;;4962877;28;20043;-69
2024/01/05 08:08:07;;;;;;;0.43;0.43;;;4.70;99.90;;;;;;4964635;28;20121;-69
2024/01/05 08:10:32;;;;;;;0.20;0.20;;;4.80;99.90;;;;;;4956657;28;20057;-69
2024/01/05 08:12:59;;;;;;;0.10;0.10;;;4.70;99.90;;;;;;4961243;28;20066;-69
2024/01/05 08:15:24;;;;;;;4.47;1.45;;;4.80;99.90;;;;;;4963451;28;20043;-69
2024/01/05 08:17:50;;;;;;;0.10;0.10;;;4.80;99.90;;;;;;4956283;28;20046;-69
2024/01/05 08:20:15;;;;;;;0.10;0.10;;;4.80;99.90;;;;;;4961495;28;20042;-69
2024/01/05 08:22:41;;;;;;;0.22;0.22;;;4.80;99.90;;;;;;4958844;28;20057;-69
2024/01/05 08:25:07;;;;;;;0.50;0.50;;;4.90;99.90;;;;;;4991447;28;20043;-69
2024/01/05 08:27:32;;;;;;;0.65;0.65;;;4.90;99.90;;;;;;4957214;28;20046;-68
2024/01/05 08:29:58;;;;;;;0.10;0.10;;;4.90;99.90;;;;;;4966277;28;20119;-69
2024/01/05 08:32:24;;;;;;;0.45;0.45;;;4.90;99.90;;;;;;4964838;28;20054;-69
2024/01/05 08:34:50;;;;;;;1.00;1.00;;;4.80;99.90;;;;;;4965795;28;20046;-69
2024/01/05 08:37:15;;;;;;;0.38;0.38;;;4.90;99.90;;;;;;4959753;28;20048;-69
2024/01/05 08:39:42;;;;;;;0.13;0.13;;;4.90;99.90;;;;;;4997668;28;20047;-70
2024/01/05 08:42:08;;;;;;;0.38;0.38;;;4.90;99.90;;;;;;4955487;28;20083;-69
2024/01/05 08:44:36;;;;;;;1.00;1.00;;;4.90;99.90;;;;;;4959596;28;20149;-69
2024/01/05 08:47:02;;;;;;;0.10;0.10;;;4.90;99.90;;;;;;4965745;28;20074;-69
2024/01/05 08:49:28;;;;;;;0.25;0.25;;;4.90;99.90;;;;;;4963164;28;20042;-69
2024/01/05 08:51:53;;;;;;;0.70;0.70;;;4.90;99.90;;;;;;4960762;28;20043;-69
2024/01/05 08:54:19;;;;;;;0.73;0.73;;;5.00;99.90;;;;;;4984021;28;20039;-69
2024/01/05 08:56:44;;;;;;;0.20;0.20;;;5.00;99.90;;;;;;4986368;28;20487;-69
2024/01/05 08:59:11;;;;;;;0.32;0.32;;;5.00;99.90;;;;;;4962342;28;20035;-69
2024/01/05 09:01:37;;;;;;;0.10;0.10;;;5.00;99.90;;;;;;4961115;28;20621;-69
2024/01/05 09:04:05;;;;;;;0.20;0.20;;;5.00;99.90;;;;;;4962551;28;20051;-69
2024/01/05 09:06:32;;;;;;;0.47;0.47;;;5.00;99.90;;;;;;4992753;28;20058;-69
2024/01/05 09:08:58;;;;;;;0.43;0.43;;;5.00;99.90;;;;;;4971178;28;20435;-69
2024/01/05 09:11:24;;;;;;;0.25;0.25;;;5.00;99.90;;;;;;4957988;28;20063;-69
2024/01/05 09:13:50;;;;;;;0.10;0.10;;;5.10;99.90;;;;;;4963101;28;20081;-69
2024/01/05 09:16:15;;;;;;;0.10;0.10;;;5.10;99.90;;;;;;4962979;28;20035;-69
2024/01/05 09:18:42;;;;;;;3.80;0.93;;;5.10;99.90;;;;;;4967415;28;20057;-70
2024/01/05 09:21:08;;;;;;;0.10;0.10;;;5.10;99.90;;;;;;4961600;28;20109;-69
2024/01/05 09:23:34;;;;;;;0.20;0.20;;;5.10;99.90;;;;;;4972285;28;20043;-70
2024/01/05 09:26:00;;;;;;;0.10;0.10;;;5.10;99.90;;;;;;4965231;28;20047;-68
2024/01/05 09:28:25;;;;;;;0.28;0.28;;;5.20;99.90;;;;;;4970522;28;20117;-68
2024/01/05 09:30:51;;;;;;;0.10;0.10;;;5.20;99.90;;;;;;4967742;28;20049;-69
2024/01/05 09:33:16;;;;;;;0.10;0.10;;;5.20;99.90;;;;;;4969907;28;20045;-70
2024/01/05 09:35:42;;;;;;;0.20;0.20;;;5.20;99.90;;;;;;4969062;28;20050;-69
2024/01/05 09:38:08;;;;;;;0.10;0.10;;;5.20;99.90;;;;;;4964174;28;20444;-70
2024/01/05 09:40:34;;;;;;;0.30;0.30;;;5.30;99.90;;;;;;4971344;28;20158;-70
2024/01/05 09:43:02;;;;;;;0.10;0.10;;;5.30;99.90;;;;;;4970979;28;20055;-70
2024/01/05 09:45:28;;;;;;;0.65;0.65;;;5.30;99.90;;;;;;4960834;28;20109;-70
2024/01/05 09:47:57;;;;;;;0.10;0.10;;;5.30;99.90;;;;;;4969690;28;20517;-70
2024/01/05 09:50:23;;;;;;;17.15;1.77;;;5.40;99.90;;;;;;4962574;28;20058;-70
2024/01/05 09:52:49;;;;;;;0.30;0.30;;;5.40;99.90;;;;;;4967900;28;20058;-69
2024/01/05 09:55:15;;;;;;;0.20;0.20;;;5.40;99.90;;;;;;4972204;28;20047;-70
2024/01/05 09:57:42;;;;;;;0.25;0.25;;;5.40;99.90;;;;;;4972079;28;20051;-70
2024/01/05 10:00:15;;;;;;;0.20;0.20;;;5.40;99.90;;;;;;4959798;28;20498;-70
2024/01/05 10:02:45;;;;;;;0.10;0.10;;;5.40;99.90;;;;;;4962722;28;20122;-70
2024/01/05 10:05:11;;;;;;;0.10;0.10;;;5.40;99.90;;;;;;4964276;28;20043;-70
2024/01/05 10:07:43;;;;;;;0.10;0.10;;;5.40;99.90;;;;;;4971594;28;20569;-70
2024/01/05 10:10:13;;;;;;;0.35;0.35;;;5.40;99.90;;;;;;4967027;28;20133;-70
2024/01/05 10:12:40;;;;;;;0.30;0.30;;;5.50;99.90;;;;;;4963099;28;20035;-70
2024/01/05 10:15:06;;;;;;;1.13;1.13;;;5.50;99.90;;;;;;4964532;28;20625;-69
2024/01/05 10:17:33;;;;;;;0.38;0.38;;;5.50;99.90;;;;;;4963461;28;20039;-70
2024/01/05 10:20:16;;;;;;;0.10;0.10;;;5.50;99.90;;;;;;4964619;28;20921;-70
2024/01/05 10:22:44;;;;;;;0.30;0.30;;;5.50;99.90;;;;;;4965849;28;20073;-70
2024/01/05 10:25:17;;;;;;;0.10;0.10;;;5.50;99.90;;;;;;4970270;28;20134;-70
2024/01/05 10:27:43;;;;;;;0.27;0.27;;;5.50;99.90;;;;;;4967091;28;20039;-70
2024/01/05 10:30:10;;;;;;;0.10;0.10;;;5.50;99.90;;;;;;4966081;28;20046;-70
2024/01/05 10:32:36;;;;;;;0.10;0.10;;;5.50;99.90;;;;;;4968113;28;20038;-70
2024/01/05 10:35:03;;;;;;;0.20;0.20;;;5.50;99.90;;;;;;4965618;28;20051;-70
2024/01/05 10:37:29;;;;;;;0.10;0.10;;;5.60;99.90;;;;;;4962359;28;20049;-69
2024/01/05 10:39:56;;;;;;;0.38;0.38;;;5.60;99.90;;;;;;4968182;28;20074;-69
2024/01/05 10:42:26;;;;;;;0.30;0.30;;;5.60;99.90;;;;;;4969846;28;20495;-70
2024/01/05 10:44:55;;;;;;;0.10;0.10;;;5.60;99.90;;;;;;4964778;28;20050;-70
2024/01/05 10:47:23;;;;;;;0.10;0.10;;;5.60;99.90;;;;;;4970736;28;20386;-70
2024/01/05 10:49:51;;;;;;;0.25;0.25;;;5.60;99.90;;;;;;4970325;28;20157;-70
2024/01/05 10:52:18;;;;;;;0.10;0.10;;;5.60;99.90;;;;;;4963811;28;20078;-70
2024/01/05 10:54:45;;;;;;;0.85;0.85;;;5.70;99.90;;;;;;4996260;28;20050;-70
2024/01/05 10:57:12;;;;;;;0.17;0.17;;;5.70;99.90;;;;;;4967358;28;20053;-69
2024/01/05 10:59:38;;;;;;;3.83;0.73;;;5.70;99.90;;;;;;4967555;28;20049;-69
2024/01/05 11:02:22;;;;;;;2.15;0.38;;;5.70;99.90;;;;;;4991534;28;20039;-68
2024/01/05 11:04:54;;;;;;;0.30;0.30;;;5.80;99.90;;;;;;4971164;28;20137;-69
2024/01/05 11:07:23;;;;;;;0.10;0.10;;;5.80;99.90;;;;;;4968989;28;20534;-69
2024/01/05 11:10:07;;;;;;;0.38;0.38;;;5.80;99.90;;;;;;4962110;28;20537;-68
2024/01/05 11:12:36;;;;;;;0.10;0.10;;;5.80;99.90;;;;;;4958115;28;20130;-68
2024/01/05 11:15:23;;;;;;;0.10;0.10;;;5.90;99.90;;;;;;4965997;28;20066;-68
2024/01/05 11:18:08;;;;;;;0.15;0.15;;;5.90;99.90;;;;;;4969461;28;20047;-69
2024/01/05 11:20:43;;;;;;;0.10;0.10;;;5.90;99.90;;;;;;4960382;28;20492;-70
2024/01/05 11:23:10;;;;;;;0.10;0.10;;;5.90;99.90;;;;;;5001114;28;20050;-70
2024/01/05 11:25:36;;;;;;;0.10;0.10;;;5.90;99.90;;;;;;4960913;28;20081;-69
2024/01/05 11:28:02;;;;;;;0.10;0.10;;;5.90;99.90;;;;;;4963798;28;20051;-70
2024/01/05 11:30:41;;;;;;;0.10;0.10;;;6.00;99.90;;;;;;4969040;28;20058;-68
2024/01/05 11:33:08;;;;;;;0.10;0.10;;;6.00;99.90;;;;;;4959977;28;20514;-69
2024/01/05 11:35:41;;;;;;;0.10;0.10;;;6.00;99.90;;;;;;4958842;28;20051;-69
2024/01/05 11:38:23;;;;;;;;;;;6.00;99.90;;;;;;4993117;28;20085;-70
2024/01/05 11:40:49;;;;;;;0.55;0.55;;;6.00;99.90;;;;;;5000869;28;19926;-70
2024/01/05 11:43:30;;;;;;;0.10;0.10;;;6.00;99.90;;;;;;4999978;28;20411;-70
2024/01/05 11:45:55;;;;;;;0.75;0.75;;;6.10;99.90;;;;;;4962839;28;20511;-70
2024/01/05 11:48:33;;;;;;;0.10;0.10;;;6.10;99.90;;;;;;4996702;28;20057;-70
2024/01/05 11:51:00;;;;;;;0.10;0.10;;;6.10;99.90;;;;;;4964928;28;20486;-70
2024/01/05 11:53:28;;;;;;;0.17;0.17;;;6.20;99.90;;;;;;4960451;28;20114;-70
2024/01/05 11:55:58;;;;;;;0.50;0.50;;;6.30;99.90;;;;;;4969581;28;20414;-70
2024/01/05 11:58:31;;;;;;;0.25;0.25;;;6.30;99.90;;;;;;4969030;28;20133;-70
2024/01/05 12:01:02;;;;;;;0.10;0.10;;;6.30;99.90;;;;;;4961711;28;20045;-70
2024/01/05 12:03:28;;;;;;;0.30;0.30;;;6.40;99.90;;;;;;4962130;28;20043;-70
2024/01/05 12:05:55;;;;;;;0.30;0.30;;;6.40;99.90;;;;;;4970191;28;20538;-70
2024/01/05 12:08:22;;;;;;;0.10;0.10;;;6.40;99.90;;;;;;4959773;28;20376;-70
2024/01/05 12:10:55;;;;;;;0.57;0.57;;;6.40;99.90;;;;;;4967398;28;20074;-70
2024/01/05 12:13:26;;;;;;;;;;;6.40;99.90;;;;;;4963503;28;20062;-70
2024/01/05 12:15:55;;;;;;;0.40;0.40;;;6.40;99.90;;;;;;4964046;28;19932;-70
2024/01/05 12:18:30;;;;;;;0.10;0.10;;;6.40;99.90;;;;;;4967678;28;20487;-70
2024/01/05 12:21:02;;;;;;;0.52;0.52;;;6.30;99.90;;;;;;4965968;28;20066;-70
2024/01/05 12:23:29;;;;;;;0.20;0.20;;;6.30;99.90;;;;;;4963629;28;20039;-70
2024/01/05 12:26:03;;;;;;;0.10;0.10;;;6.30;99.90;;;;;;4953095;28;20071;-70
2024/01/05 12:28:30;;;;;;;;;;;6.30;99.90;;;;;;4962741;28;20038;-70
2024/01/05 12:30:57;;;;;;;0.63;0.63;;;6.30;99.90;;;;;;4968994;28;20362;-70
2024/01/05 12:33:24;;;;;;;0.20;0.20;;;6.30;99.90;;;;;;4964208;28;20081;-71
2024/01/05 12:35:52;;;;;;;0.32;0.32;;;6.30;99.90;;;;;;4960474;28;20086;-69
2024/01/05 12:38:35;;;;;;;1.52;0.57;;;6.30;99.90;;;;;;4971874;28;20055;-69
2024/01/05 12:41:08;;;;;;;;;;;6.30;99.90;;;;;;4958576;28;20110;-70
2024/01/05 12:43:42;;;;;;;0.10;0.10;;;6.30;99.90;;;;;;4961159;28;19977;-69
2024/01/05 12:46:08;;;;;;;0.70;0.70;;;6.30;99.90;;;;;;4958052;28;20035;-69
2024/01/05 12:48:34;;;;;;;1.45;1.25;;;6.30;99.90;;;;;;4997603;28;20047;-71
2024/01/05 12:51:14;;;;;;;0.10;0.10;;;6.30;99.90;;;;;;4964738;28;20042;-71
2024/01/05 12:53:40;;;;;;;0.20;0.20;;;6.30;99.90;;;;;;4962486;28;20418;-70
2024/01/05 12:56:17;;;;;;;0.60;0.55;;;6.30;99.90;;;;;;4966059;28;20498;-71